Time;durP1;ratioP1;P1;durP2;ratioP2;P2;SDS_P1;SDS_P2;PMS_P1;PMS_P2;Temp;Humidity;BMP_temperature;BMP_pressure;BME280_temperature;BME280_humidity;BME280_pressure;Samples;Min_cycle;Max_cycle;Signal;HPM_P1;HPM_P2
2022/08/02 00:00:41;;;;;;;3.42;2.17;;;;;;;18.69;nan;100853.97;2030885;29;20056;-68
2022/08/02 00:01:45;;;;;;;3.85;2.40;;;;;;;18.70;nan;100847.41;2033047;29;20048;-68
2022/08/02 00:02:50;;;;;;;3.08;2.40;;;;;;;18.70;nan;100848.22;2031870;29;20059;-68
2022/08/02 00:03:55;;;;;;;3.20;2.30;;;;;;;18.70;nan;100855.59;2024682;29;20523;-69
2022/08/02 00:04:57;;;;;;;3.60;2.35;;;;;;;18.67;nan;100851.59;2032463;29;20056;-69
2022/08/02 00:06:00;;;;;;;4.22;2.67;;;;;;;18.66;nan;100847.28;2025002;29;20055;-68
2022/08/02 00:07:05;;;;;;;3.95;2.10;;;;;;;18.66;nan;100847.28;2025237;29;20048;-66
2022/08/02 00:08:09;;;;;;;4.60;2.25;;;;;;;18.67;nan;100843.41;2031801;29;20060;-66
2022/08/02 00:09:12;;;;;;;3.67;2.22;;;;;;;18.70;nan;100847.41;2029141;29;20044;-67
2022/08/02 00:10:15;;;;;;;3.05;2.20;;;;;;;18.71;nan;100849.00;2030536;29;20811;-67
2022/08/02 00:11:18;;;;;;;4.47;3.15;;;;;;;18.71;nan;100843.56;2017510;29;20041;-67
2022/08/02 00:12:21;;;;;;;3.28;2.40;;;;;;;18.71;nan;100849.00;2022805;29;20470;-67
2022/08/02 00:13:26;;;;;;;3.78;2.50;;;;;;;18.71;nan;100849.81;2037016;29;20088;-69
2022/08/02 00:14:30;;;;;;;3.30;2.38;;;;;;;18.70;nan;100845.47;2024013;29;20056;-68
2022/08/02 00:15:35;;;;;;;4.03;2.65;;;;;;;18.68;nan;100849.66;2018941;29;20044;-68
2022/08/02 00:16:40;;;;;;;5.68;2.22;;;;;;;18.67;nan;100845.34;2032677;29;20055;-68
2022/08/02 00:17:41;;;;;;;4.70;2.50;;;;;;;18.65;nan;100845.66;2032959;29;20051;-68
2022/08/02 00:18:48;;;;;;;3.05;2.65;;;;;;;18.68;nan;100847.72;2024475;29;20068;-68
2022/08/02 00:19:49;;;;;;;4.13;2.30;;;;;;;18.68;nan;100844.22;2023179;29;20033;-68
2022/08/02 00:20:54;;;;;;;5.30;2.60;;;;;;;18.68;nan;100845.00;2025530;29;20048;-68
2022/08/02 00:21:59;;;;;;;3.53;2.40;;;;;;;18.66;nan;100839.09;2024734;29;20056;-68
2022/08/02 00:23:01;;;;;;;3.85;2.75;;;;;;;18.62;nan;100840.84;2028301;29;20052;-67
2022/08/02 00:24:05;;;;;;;6.15;2.50;;;;;;;18.62;nan;100842.78;2024470;29;20070;-68
2022/08/02 00:25:07;;;;;;;5.10;2.50;;;;;;;18.61;nan;100844.72;2018236;29;20057;-67
2022/08/02 00:26:15;;;;;;;3.22;2.47;;;;;;;18.60;nan;100847.75;2032718;29;20386;-68
2022/08/02 00:27:16;;;;;;;3.70;2.63;;;;;;;18.60;nan;100847.75;2032777;29;20036;-68
2022/08/02 00:28:21;;;;;;;3.70;2.40;;;;;;;18.60;nan;100843.13;2032156;29;20496;-68
2022/08/02 00:29:27;;;;;;;;;;;;;;;18.59;nan;100844.22;2020288;29;20068;-68
2022/08/02 00:30:29;;;;;;;3.85;2.55;;;;;;;18.59;nan;100846.94;2032983;29;20618;-67
2022/08/02 00:31:34;;;;;;;3.95;2.63;;;;;;;18.58;nan;100850.81;2032565;29;20044;-68
2022/08/02 00:32:38;;;;;;;3.20;2.40;;;;;;;18.54;nan;100849.88;2031754;29;20393;-68
2022/08/02 00:33:40;;;;;;;3.20;2.53;;;;;;;18.53;nan;100848.25;2039040;29;20086;-68
2022/08/02 00:34:45;;;;;;;3.47;2.53;;;;;;;18.56;nan;100842.16;2031206;29;20048;-68
2022/08/02 00:35:47;;;;;;;3.42;2.72;;;;;;;18.56;nan;100846.81;2025444;29;20051;-68
2022/08/02 00:36:53;;;;;;;4.57;2.35;;;;;;;18.59;nan;100848.88;2040316;29;20508;-67
2022/08/02 00:37:55;;;;;;;3.40;2.50;;;;;;;18.59;nan;100857.84;2039658;29;20036;-68
2022/08/02 00:39:00;;;;;;;4.30;2.67;;;;;;;18.58;nan;100845.38;2032245;29;20063;-68
2022/08/02 00:40:06;;;;;;;3.20;2.50;;;;;;;18.56;nan;100847.59;2032503;29;20051;-68
2022/08/02 00:41:17;;;;;;;4.40;2.72;;;;;;;18.56;nan;100847.59;2024904;29;20052;-68
2022/08/02 00:42:19;;;;;;;3.90;2.40;;;;;;;18.58;nan;100850.81;2033703;29;20424;-68
2022/08/02 00:43:34;;;;;;;5.18;2.42;;;;;;;18.60;nan;100845.84;2031307;29;20048;-67
2022/08/02 00:44:38;;;;;;;4.30;2.70;;;;;;;18.60;nan;100851.28;2040355;29;20051;-68
2022/08/02 00:45:45;;;;;;;6.10;2.70;;;;;;;18.62;nan;100850.97;2037512;29;20047;-68
2022/08/02 00:46:52;;;;;;;3.58;2.78;;;;;;;18.60;nan;100851.28;2032452;29;20036;-68
2022/08/02 00:47:54;;;;;;;3.30;2.45;;;;;;;18.59;nan;100844.22;2024540;29;20052;-68
2022/08/02 00:49:01;;;;;;;6.97;2.63;;;;;;;18.58;nan;100853.53;2029902;29;20074;-67
2022/08/02 00:50:04;;;;;;;5.07;2.88;;;;;;;18.59;nan;100855.13;2034201;29;20146;-68
2022/08/02 00:51:09;;;;;;;5.38;2.70;;;;;;;18.58;nan;100850.81;2039888;29;20046;-68
2022/08/02 00:52:13;;;;;;;5.95;2.65;;;;;;;18.58;nan;100856.25;2040231;29;20051;-67
2022/08/02 00:53:18;;;;;;;3.42;2.78;;;;;;;18.56;nan;100850.31;2040122;29;20044;-68
2022/08/02 00:54:20;;;;;;;3.75;2.78;;;;;;;18.56;nan;100847.59;2039469;29;20461;-67
2022/08/02 00:55:23;;;;;;;8.27;2.85;;;;;;;18.56;nan;100853.06;2031031;29;20044;-68
2022/08/02 00:56:25;;;;;;;3.65;2.67;;;;;;;18.57;nan;100853.84;2032169;29;20051;-68
2022/08/02 00:57:31;;;;;;;4.57;2.95;;;;;;;18.56;nan;100855.78;2029798;29;20523;-68
2022/08/02 00:58:34;;;;;;;6.45;3.13;;;;;;;18.56;nan;100847.59;2032444;29;20059;-67
2022/08/02 00:59:35;;;;;;;5.00;2.97;;;;;;;18.53;nan;100849.03;2032230;29;20444;-68
2022/08/02 01:00:37;;;;;;;4.00;2.80;;;;;;;18.52;nan;100842.00;2030946;29;20048;-68
2022/08/02 01:01:41;;;;;;;5.75;3.00;;;;;;;18.53;nan;100848.25;2032558;29;20043;-68
2022/08/02 01:02:44;;;;;;;7.57;3.42;;;;;;;18.55;nan;100846.00;2039900;29;20565;-68
2022/08/02 01:03:45;;;;;;;5.43;3.08;;;;;;;18.53;nan;100845.53;2040013;29;20047;-68
2022/08/02 01:04:48;;;;;;;4.30;2.92;;;;;;;18.52;nan;100843.94;2024064;29;20060;-68
2022/08/02 01:05:52;;;;;;;4.85;3.13;;;;;;;18.53;nan;100848.25;2023817;29;20061;-67
2022/08/02 01:06:56;;;;;;;7.18;3.30;;;;;;;18.52;nan;100842.00;2032205;29;20440;-67
2022/08/02 01:07:58;;;;;;;6.78;3.17;;;;;;;18.53;nan;100840.09;2037757;29;20443;-68
2022/08/02 01:09:06;;;;;;;5.05;3.08;;;;;;;18.55;nan;100846.00;2039559;29;20051;-68
2022/08/02 01:10:09;;;;;;;5.20;2.95;;;;;;;18.56;nan;100853.06;2047076;29;20055;-67
2022/08/02 01:11:14;;;;;;;5.25;2.95;;;;;;;18.58;nan;100847.28;2047536;29;20039;-67
2022/08/02 01:12:19;;;;;;;4.57;3.40;;;;;;;18.56;nan;100842.16;2023547;29;20056;-67
2022/08/02 01:13:22;;;;;;;4.25;3.08;;;;;;;18.57;nan;100849.22;2024130;29;20766;-67
2022/08/02 01:14:25;;;;;;;6.68;3.35;;;;;;;18.58;nan;100845.38;2047953;29;20054;-68
2022/08/02 01:15:31;;;;;;;7.57;3.40;;;;;;;18.58;nan;100845.38;2047472;29;20058;-67
2022/08/02 01:16:53;;;;;;;4.45;3.08;;;;;;;18.55;nan;100845.22;2031882;29;20059;-67
2022/08/02 01:18:01;;;;;;;5.10;3.42;;;;;;;18.54;nan;100844.44;2030273;29;20056;-67
2022/08/02 01:19:40;;;;;;;5.25;3.72;;;;;;;18.55;nan;100850.66;2025767;29;20120;-67
2022/08/02 01:21:17;;;;;;;5.03;3.53;;;;;;;18.53;nan;100853.69;2021214;29;20057;-68
2022/08/02 01:22:24;;;;;;;9.27;3.35;;;;;;;18.53;nan;100856.41;2028527;29;20047;-67
2022/08/02 01:23:58;;;;;;;8.32;3.55;;;;;;;18.52;nan;100846.66;2031068;29;20044;-67
2022/08/02 01:25:12;;;;;;;6.38;3.47;;;;;;;18.50;nan;100859.78;2032184;29;20051;-67
2022/08/02 01:26:14;;;;;;;6.07;3.08;;;;;;;18.46;nan;100861.56;2032692;29;20040;-68
2022/08/02 01:27:49;;;;;;;7.18;3.60;;;;;;;18.46;nan;100847.97;2040246;29;20492;-68
2022/08/02 01:29:02;;;;;;;6.00;3.28;;;;;;;18.43;nan;100854.06;2032395;29;20063;-68
2022/08/02 01:30:06;;;;;;;6.53;3.75;;;;;;;18.39;nan;100848.47;2031075;29;20055;-67
2022/08/02 01:31:25;;;;;;;8.38;4.13;;;;;;;18.38;nan;100846.88;2031767;29;20067;-68
2022/08/02 01:32:46;;;;;;;6.90;3.38;;;;;;;18.39;nan;100845.72;2031522;29;20052;-68
2022/08/02 01:33:59;;;;;;;4.85;3.22;;;;;;;18.40;nan;100849.25;2034581;29;20052;-68
2022/08/02 01:35:12;;;;;;;7.53;3.40;;;;;;;18.38;nan;100846.03;2037778;29;20043;-67
2022/08/02 01:36:19;;;;;;;6.78;3.63;;;;;;;18.35;nan;100849.41;2032379;29;20059;-67
2022/08/02 01:37:41;;;;;;;8.15;3.25;;;;;;;18.33;nan;100851.69;2031944;29;20048;-67
2022/08/02 01:38:47;;;;;;;7.00;3.25;;;;;;;18.30;nan;100845.75;2028943;29;20048;-67
2022/08/02 01:39:59;;;;;;;6.63;3.38;;;;;;;18.34;nan;100845.91;2032329;29;20043;-68
2022/08/02 01:41:05;;;;;;;4.60;3.10;;;;;;;18.36;nan;100848.31;2032569;29;20056;-67
2022/08/02 01:42:21;;;;;;;4.32;3.42;;;;;;;18.33;nan;100843.50;2040063;29;20036;-67
2022/08/02 01:43:28;;;;;;;6.93;3.58;;;;;;;18.32;nan;100847.38;2032162;29;20052;-67
2022/08/02 01:44:36;;;;;;;6.38;3.38;;;;;;;18.30;nan;100851.19;2032091;29;20058;-67
2022/08/02 01:45:40;;;;;;;5.35;3.08;;;;;;;18.33;nan;100848.97;2031077;29;20052;-67
2022/08/02 01:46:43;;;;;;;7.45;3.20;;;;;;;18.35;nan;100850.25;2023924;29;20533;-67
2022/08/02 01:47:48;;;;;;;5.28;3.08;;;;;;;18.35;nan;100852.13;2023322;29;20057;-68
2022/08/02 01:48:57;;;;;;;4.88;3.10;;;;;;;18.35;nan;100849.41;2032548;29;20063;-67
2022/08/02 01:50:00;;;;;;;6.57;2.95;;;;;;;18.34;nan;100850.53;2039977;29;20046;-67
2022/08/02 01:51:09;;;;;;;9.07;3.13;;;;;;;18.33;nan;100851.69;2031964;29;20060;-67
2022/08/02 01:52:21;;;;;;;4.45;3.00;;;;;;;18.33;nan;100855.19;2024237;29;20406;-68
2022/08/02 01:53:29;;;;;;;6.97;3.17;;;;;;;18.33;nan;100854.41;2025876;29;20504;-68
2022/08/02 01:54:34;;;;;;;5.43;3.10;;;;;;;18.31;nan;100862.88;2032161;29;20056;-67
2022/08/02 01:55:52;;;;;;;6.15;3.22;;;;;;;18.30;nan;100853.13;2037515;29;20052;-68
2022/08/02 01:56:56;;;;;;;6.72;3.22;;;;;;;18.30;nan;100850.41;2040239;29;20051;-67
2022/08/02 01:58:02;;;;;;;9.27;2.90;;;;;;;18.30;nan;100855.84;2038326;29;20396;-67
2022/08/02 01:59:09;;;;;;;4.70;3.20;;;;;;;18.26;nan;100858.41;2038953;29;20047;-67
2022/08/02 02:00:23;;;;;;;8.75;3.15;;;;;;;18.28;nan;100855.34;2039863;29;20062;-68
2022/08/02 02:01:26;;;;;;;5.93;2.90;;;;;;;18.28;nan;100848.00;2040167;29;20047;-67
2022/08/02 02:02:30;;;;;;;5.22;3.28;;;;;;;18.29;nan;100860.50;2032073;29;20032;-68
2022/08/02 02:03:38;;;;;;;8.20;2.80;;;;;;;18.29;nan;100849.59;2031659;29;20055;-67
2022/08/02 02:04:44;;;;;;;6.60;2.80;;;;;;;18.32;nan;100855.53;2031990;29;20528;-67
2022/08/02 02:05:50;;;;;;;5.22;2.65;;;;;;;18.31;nan;100852.00;2040562;29;20059;-67
2022/08/02 02:06:55;;;;;;;8.88;3.00;;;;;;;18.33;nan;100854.41;2046477;29;20047;-67
2022/08/02 02:08:00;;;;;;;5.70;2.72;;;;;;;18.34;nan;100853.28;2039176;29;20059;-67
2022/08/02 02:09:06;;;;;;;4.22;2.60;;;;;;;18.34;nan;100864.16;2039841;29;20039;-67
2022/08/02 02:10:14;;;;;;;6.22;2.80;;;;;;;18.34;nan;100856.00;2031613;29;20091;-67
2022/08/02 02:11:17;;;;;;;10.50;3.05;;;;;;;18.35;nan;100863.03;2033356;29;20055;-68
2022/08/02 02:12:23;;;;;;;7.47;2.92;;;;;;;18.33;nan;100865.28;2019160;29;20052;-68
2022/08/02 02:13:27;;;;;;;8.35;2.78;;;;;;;18.32;nan;100869.16;2017925;29;20036;-67
2022/08/02 02:14:35;;;;;;;6.13;2.80;;;;;;;18.30;nan;100861.28;2031565;29;20054;-68
2022/08/02 02:15:46;;;;;;;7.82;2.47;;;;;;;18.31;nan;100852.00;2036393;29;20055;-67
2022/08/02 02:16:48;;;;;;;6.68;2.65;;;;;;;18.30;nan;100864.81;2023963;29;20053;-67
2022/08/02 02:17:55;;;;;;;4.65;2.70;;;;;;;18.29;nan;100863.22;2024731;29;20064;-67
2022/08/02 02:19:01;;;;;;;5.03;2.38;;;;;;;18.30;nan;100862.06;2032732;29;20473;-67
2022/08/02 02:20:05;;;;;;;4.85;2.85;;;;;;;18.31;nan;100873.75;2031877;29;20060;-67
2022/08/02 02:21:09;;;;;;;8.85;2.63;;;;;;;18.30;nan;100867.53;2023932;29;20401;-67
2022/08/02 02:22:10;;;;;;;5.35;2.65;;;;;;;18.27;nan;100870.88;2024193;29;20055;-67
2022/08/02 02:23:12;;;;;;;5.82;2.78;;;;;;;18.25;nan;100875.88;2031795;29;20040;-67
2022/08/02 02:24:14;;;;;;;4.53;3.08;;;;;;;18.26;nan;100872.03;2031406;29;20060;-67
2022/08/02 02:25:22;;;;;;;6.05;2.30;;;;;;;18.24;nan;100868.81;2031072;29;20040;-68
2022/08/02 02:26:31;;;;;;;5.40;2.55;;;;;;;18.22;nan;100875.69;2017370;29;20052;-67
2022/08/02 02:27:42;;;;;;;;;;;;;;;18.19;nan;100874.44;2025756;29;20055;-67
2022/08/02 02:28:46;;;;;;;5.20;2.63;;;;;;;18.20;nan;100878.75;2032842;29;19919;-67
2022/08/02 02:29:51;;;;;;;10.73;2.65;;;;;;;18.21;nan;100877.63;2032837;29;20059;-67
2022/08/02 02:31:02;;;;;;;10.48;2.90;;;;;;;18.21;nan;100872.19;2038935;29;20052;-68
2022/08/02 02:32:07;;;;;;;6.53;2.38;;;;;;;18.20;nan;100881.47;2047011;29;20054;-67
2022/08/02 02:33:12;;;;;;;5.90;2.47;;;;;;;18.20;nan;100878.75;2046532;29;20055;-67
2022/08/02 02:34:20;;;;;;;5.90;2.38;;;;;;;18.21;nan;100880.34;2034993;29;20042;-68
2022/08/02 02:35:29;;;;;;;10.45;2.80;;;;;;;18.21;nan;100885.78;2032434;29;20047;-68
2022/08/02 02:36:36;;;;;;;9.27;2.75;;;;;;;18.22;nan;100887.41;2038008;29;20035;-67
2022/08/02 02:37:39;;;;;;;4.72;2.25;;;;;;;18.20;nan;100884.19;2024607;29;20048;-67
2022/08/02 02:38:41;;;;;;;6.00;2.70;;;;;;;18.17;nan;100886.75;2024291;29;20477;-67
2022/08/02 02:39:50;;;;;;;6.63;2.25;;;;;;;18.16;nan;100887.88;2025979;29;20056;-67
2022/08/02 02:40:55;;;;;;;5.82;2.30;;;;;;;18.15;nan;100880.84;2032882;29;20108;-68
2022/08/02 02:42:02;;;;;;;5.28;2.40;;;;;;;18.17;nan;100886.75;2039558;29;20047;-67
2022/08/02 02:43:07;;;;;;;7.72;2.42;;;;;;;18.17;nan;100887.56;2039696;29;20062;-67
2022/08/02 02:44:18;;;;;;;3.53;2.38;;;;;;;18.17;nan;100893.00;2039793;29;20527;-67
2022/08/02 02:45:25;;;;;;;8.25;2.80;;;;;;;18.16;nan;100894.13;2041037;29;20055;-67
2022/08/02 02:46:32;;;;;;;6.45;2.35;;;;;;;18.15;nan;100886.28;2033411;29;20055;-67
2022/08/02 02:47:39;;;;;;;4.68;2.63;;;;;;;18.16;nan;100890.59;2026444;29;20036;-67
2022/08/02 02:48:44;;;;;;;5.25;2.60;;;;;;;18.14;nan;100887.41;2033563;29;20056;-67
2022/08/02 02:49:50;;;;;;;7.72;2.40;;;;;;;18.11;nan;100894.28;2025468;29;20045;-67
2022/08/02 02:50:54;;;;;;;7.00;2.63;;;;;;;18.12;nan;100893.16;2026769;29;20041;-67
2022/08/02 02:51:58;;;;;;;6.72;2.65;;;;;;;18.11;nan;100894.28;2041566;29;20484;-67
2022/08/02 02:53:02;;;;;;;6.90;2.35;;;;;;;18.14;nan;100896.38;2041852;29;20043;-67
2022/08/02 02:54:07;;;;;;;5.10;2.55;;;;;;;18.14;nan;100899.09;2040466;29;20051;-67
2022/08/02 02:55:11;;;;;;;6.85;2.35;;;;;;;18.14;nan;100890.91;2041085;29;20506;-67
2022/08/02 02:56:15;;;;;;;5.68;2.42;;;;;;;18.13;nan;100893.97;2031118;29;20064;-67
2022/08/02 02:57:18;;;;;;;5.85;2.10;;;;;;;18.10;nan;100900.06;2025815;29;20040;-67
2022/08/02 02:58:23;;;;;;;4.43;2.30;;;;;;;18.13;nan;100897.50;2032879;29;20608;-67
2022/08/02 02:59:28;;;;;;;2.95;2.10;;;;;;;18.12;nan;100892.34;2032544;29;20051;-68
2022/08/02 03:01:58;;;;;;;6.45;2.38;;;;;;;18.07;nan;100901.50;2024664;29;20551;-67
2022/08/02 03:03:01;;;;;;;4.70;2.00;;;;;;;18.07;nan;100901.50;2028154;29;20062;-67
2022/08/02 03:04:08;;;;;;;5.15;2.20;;;;;;;18.10;nan;100895.41;2032331;29;20048;-68
2022/08/02 03:05:13;;;;;;;5.00;2.22;;;;;;;18.10;nan;100900.84;2032443;29;20052;-68
2022/08/02 03:06:16;;;;;;;8.07;2.20;;;;;;;18.10;nan;100894.63;2033363;29;20391;-68
2022/08/02 03:07:19;;;;;;;5.82;2.05;;;;;;;18.10;nan;100897.34;2031358;29;20169;-67
2022/08/02 03:08:22;;;;;;;6.82;2.00;;;;;;;18.10;nan;100900.84;2025801;29;20056;-67
2022/08/02 03:09:27;;;;;;;6.70;2.40;;;;;;;18.07;nan;100906.94;2026140;29;20448;-67
2022/08/02 03:10:32;;;;;;;6.10;2.40;;;;;;;18.07;nan;100904.22;2031042;29;20044;-67
2022/08/02 03:11:35;;;;;;;4.95;2.42;;;;;;;18.03;nan;100901.34;2035238;29;20044;-67
2022/08/02 03:12:40;;;;;;;5.47;2.38;;;;;;;18.06;nan;100908.03;2032421;29;20051;-68
2022/08/02 03:13:42;;;;;;;9.35;2.38;;;;;;;18.07;nan;100904.22;2025950;29;20040;-68
2022/08/02 03:14:44;;;;;;;6.30;2.40;;;;;;;18.09;nan;100912.84;2033109;29;20063;-68
2022/08/02 03:15:47;;;;;;;4.93;2.00;;;;;;;18.11;nan;100907.09;2017671;29;20064;-68
2022/08/02 03:16:54;;;;;;;6.93;2.15;;;;;;;18.10;nan;100911.75;2025468;29;20595;-68
2022/08/02 03:17:56;;;;;;;8.10;2.13;;;;;;;18.12;nan;100904.03;2031438;29;20052;-68
2022/08/02 03:19:01;;;;;;;8.20;2.17;;;;;;;18.13;nan;100911.09;2033116;29;20044;-68
2022/08/02 03:20:12;;;;;;;6.68;2.20;;;;;;;18.17;nan;100914.78;2023984;29;20068;-67
2022/08/02 03:21:18;;;;;;;7.72;2.70;;;;;;;18.21;nan;100913.00;2020041;29;20049;-67
2022/08/02 03:22:19;;;;;;;5.40;1.90;;;;;;;18.26;nan;100912.84;2025463;29;20056;-67
2022/08/02 03:23:25;;;;;;;4.65;1.80;;;;;;;18.32;nan;100913.50;2025478;29;20052;-67
2022/08/02 03:24:29;;;;;;;4.30;2.17;;;;;;;18.38;nan;100914.09;2024783;29;20076;-67
2022/08/02 03:25:30;;;;;;;3.40;2.25;;;;;;;18.42;nan;100910.44;2025282;29;20056;-69
2022/08/02 03:26:38;;;;;;;6.93;1.90;;;;;;;18.43;nan;100914.75;2025339;29;20065;-69
2022/08/02 03:27:41;;;;;;;6.78;2.22;;;;;;;18.43;nan;100912.03;2025714;29;20394;-68
2022/08/02 03:28:45;;;;;;;8.60;2.10;;;;;;;18.46;nan;100916.03;2026426;29;20059;-69
2022/08/02 03:29:47;;;;;;;5.13;1.90;;;;;;;18.48;nan;100914.59;2032159;29;20435;-68
2022/08/02 03:30:48;;;;;;;3.97;2.03;;;;;;;18.49;nan;100916.19;2034576;29;20055;-68
2022/08/02 03:31:51;;;;;;;8.77;2.00;;;;;;;18.50;nan;100919.69;2032212;29;20044;-69
2022/08/02 03:32:55;;;;;;;3.92;2.17;;;;;;;18.54;nan;100915.22;2040002;29;20051;-68
2022/08/02 03:34:01;;;;;;;14.07;2.40;;;;;;;18.56;nan;100915.69;2040074;29;20060;-68
2022/08/02 03:35:07;;;;;;;8.30;2.30;;;;;;;18.60;nan;100919.38;2033555;29;20063;-68
2022/08/02 03:36:12;;;;;;;6.05;2.08;;;;;;;18.66;nan;100919.97;2047572;29;20623;-68
2022/08/02 03:37:17;;;;;;;6.88;2.13;;;;;;;18.71;nan;100917.09;2048853;28;20047;-69
2022/08/02 03:38:23;;;;;;;6.90;2.20;;;;;;;18.72;nan;100919.50;2047952;29;20055;-69
2022/08/02 03:39:25;;;;;;;5.38;1.95;;;;;;;18.75;nan;100921.59;2025195;29;20051;-68
2022/08/02 03:40:30;;;;;;;5.05;2.00;;;;;;;18.79;nan;100921.75;2025441;29;20032;-69
2022/08/02 03:41:34;;;;;;;4.50;2.10;;;;;;;18.84;nan;100913.41;2031965;29;20055;-69
2022/08/02 03:42:39;;;;;;;5.10;1.90;;;;;;;18.88;nan;100919.78;2033316;29;20508;-68
2022/08/02 03:43:43;;;;;;;5.45;2.00;;;;;;;18.95;nan;100924.75;2025060;29;20606;-69
2022/08/02 03:44:47;;;;;;;8.18;2.30;;;;;;;19.03;nan;100925.84;2025334;29;20138;-69
2022/08/02 03:45:53;;;;;;;13.25;2.17;;;;;;;19.07;nan;100924.84;2033305;29;20408;-69
2022/08/02 03:46:58;;;;;;;3.17;1.83;;;;;;;19.13;nan;100926.28;2032849;29;20051;-69
2022/08/02 03:48:02;;;;;;;3.97;1.92;;;;;;;19.21;nan;100927.38;2032500;29;20055;-68
2022/08/02 03:49:08;;;;;;;7.97;2.05;;;;;;;19.27;nan;100930.72;2033652;29;20110;-68
2022/08/02 03:50:13;;;;;;;6.63;2.10;;;;;;;19.33;nan;100923.97;2040748;29;20050;-69
2022/08/02 03:51:23;;;;;;;8.68;2.10;;;;;;;19.37;nan;100922.97;2040643;29;20053;-67
2022/08/02 03:52:32;;;;;;;6.95;1.90;;;;;;;19.38;nan;100926.47;2031058;29;20055;-69
2022/08/02 03:53:37;;;;;;;4.22;1.67;;;;;;;19.44;nan;100930.63;2027476;29;20057;-67
2022/08/02 03:54:39;;;;;;;5.63;1.90;;;;;;;19.49;nan;100929.66;2032946;29;20881;-66
2022/08/02 03:55:42;;;;;;;5.30;2.00;;;;;;;19.56;nan;100927.19;2032026;29;20048;-66
2022/08/02 03:56:45;;;;;;;7.38;2.00;;;;;;;19.62;nan;100920.41;2026313;29;20190;-68
2022/08/02 03:57:48;;;;;;;8.27;1.83;;;;;;;19.67;nan;100929.25;2025331;29;20045;-68
2022/08/02 03:58:49;;;;;;;9.02;2.70;;;;;;;19.71;nan;100923.13;2032883;29;20539;-68
2022/08/02 03:59:53;;;;;;;6.43;1.90;;;;;;;19.75;nan;100940.44;2040773;29;20051;-68
2022/08/02 04:00:57;;;;;;;6.93;2.03;;;;;;;19.79;nan;100925.78;2026837;29;20044;-68
2022/08/02 04:02:02;;;;;;;6.97;1.75;;;;;;;19.82;nan;100927.03;2033684;29;20044;-67
2022/08/02 04:03:06;;;;;;;5.88;2.00;;;;;;;19.84;nan;100928.31;2024851;29;20501;-68
2022/08/02 04:04:10;;;;;;;6.35;1.70;;;;;;;19.87;nan;100926.88;2026684;29;20084;-68
2022/08/02 04:05:17;;;;;;;4.68;1.92;;;;;;;19.93;nan;100936.44;2026946;29;20064;-67
2022/08/02 04:06:28;;;;;;;7.30;2.25;;;;;;;19.98;nan;100935.44;2011852;29;20526;-68
2022/08/02 04:07:31;;;;;;;7.70;2.20;;;;;;;20.04;nan;100936.84;2018617;29;20060;-68
2022/08/02 04:08:34;;;;;;;5.95;1.98;;;;;;;20.08;nan;100944.03;2039680;29;20051;-67
2022/08/02 04:09:41;;;;;;;6.07;2.00;;;;;;;20.08;nan;100933.13;2024523;29;20052;-67
2022/08/02 04:12:05;;;;;;;4.45;1.58;;;;;;;20.24;nan;100940.69;2038205;29;20047;-67
2022/08/02 04:13:09;;;;;;;6.35;2.00;;;;;;;20.28;nan;100944.38;2025118;29;20071;-67
2022/08/02 04:14:11;;;;;;;3.22;1.70;;;;;;;20.34;nan;100932.09;2025075;29;20036;-68
2022/08/02 04:15:19;;;;;;;4.28;1.50;;;;;;;20.41;nan;100943.28;2025547;29;20044;-68
2022/08/02 04:16:38;;;;;;;6.95;1.60;;;;;;;20.42;nan;100938.59;2022882;29;20059;-68
2022/08/02 04:17:50;;;;;;;8.63;2.08;;;;;;;20.39;nan;100937.34;2027521;29;20059;-68
2022/08/02 04:18:57;;;;;;;7.70;2.05;;;;;;;20.43;nan;100942.91;2033157;29;20052;-68
2022/08/02 04:20:18;;;;;;;6.90;2.10;;;;;;;20.50;nan;100946.72;2017443;29;20045;-68
2022/08/02 04:21:23;;;;;;;6.57;1.73;;;;;;;20.56;nan;100942.69;2030134;29;20390;-68
2022/08/02 04:22:40;;;;;;;11.30;2.03;;;;;;;20.63;nan;100946.78;2038167;29;20050;-67
2022/08/02 04:23:51;;;;;;;6.85;1.52;;;;;;;20.71;nan;100954.09;2032682;29;20044;-67
2022/08/02 04:24:59;;;;;;;8.93;2.47;;;;;;;20.76;nan;100951.16;2032419;29;20052;-68
2022/08/02 04:26:03;;;;;;;7.57;1.90;;;;;;;20.75;nan;100949.56;2030683;29;20107;-68
2022/08/02 04:27:20;;;;;;;5.65;1.80;;;;;;;20.80;nan;100950.13;2026920;29;20101;-68
2022/08/02 04:28:24;;;;;;;5.70;1.60;;;;;;;20.88;nan;100958.59;2040423;29;20040;-67
2022/08/02 04:29:26;;;;;;;4.28;1.58;;;;;;;20.94;nan;100951.78;2040538;29;20047;-68
2022/08/02 04:30:31;;;;;;;8.02;1.95;;;;;;;20.96;nan;100955.75;2032542;29;20036;-68
2022/08/02 04:31:34;;;;;;;3.88;1.75;;;;;;;20.96;nan;100958.47;2022160;29;20052;-68
2022/08/02 04:32:36;;;;;;;4.05;1.67;;;;;;;21.00;nan;100961.34;2024852;29;20057;-67
2022/08/02 04:33:40;;;;;;;4.55;1.60;;;;;;;20.92;nan;100967.72;2024738;29;20056;-67
2022/08/02 04:34:45;;;;;;;3.63;1.60;;;;;;;20.94;nan;100960.75;2039484;29;20059;-67
2022/08/02 04:36:06;;;;;;;3.65;1.80;;;;;;;21.00;nan;100966.81;2031256;29;20047;-67
2022/08/02 04:37:10;;;;;;;2.92;1.58;;;;;;;21.04;nan;100963.06;2020792;29;20568;-67
2022/08/02 04:38:14;;;;;;;6.40;1.95;;;;;;;21.09;nan;100962.06;2032893;29;20385;-67
2022/08/02 04:39:18;;;;;;;5.10;1.52;;;;;;;21.21;nan;100958.50;2031645;29;20048;-67
2022/08/02 04:40:19;;;;;;;7.78;1.60;;;;;;;21.26;nan;100969.25;2024339;29;20052;-68
2022/08/02 04:41:42;;;;;;;6.60;1.75;;;;;;;21.33;nan;100968.66;2017225;29;20433;-68
2022/08/02 04:42:44;;;;;;;2.17;1.40;;;;;;;21.40;nan;100963.44;2025339;29;20059;-68
2022/08/02 04:43:51;;;;;;;7.70;2.28;;;;;;;21.47;nan;100964.50;2026462;29;20497;-68
2022/08/02 04:44:53;;;;;;;5.72;2.00;;;;;;;21.52;nan;100966.97;2032163;29;20055;-67
2022/08/02 04:46:01;;;;;;;9.57;1.83;;;;;;;21.50;nan;100965.72;2030480;29;20056;-67
2022/08/02 04:47:07;;;;;;;5.85;1.50;;;;;;;;;;2024872;29;20071;-67
2022/08/02 04:48:09;;;;;;;5.22;1.60;;;;;;;21.59;nan;100979.28;2033555;29;20044;-68
2022/08/02 04:49:12;;;;;;;3.47;1.40;;;;;;;21.64;nan;100979.06;2039993;29;20526;-67
2022/08/02 04:50:13;;;;;;;8.05;1.60;;;;;;;21.66;nan;100976.81;2032481;29;20566;-68
2022/08/02 04:51:15;;;;;;;6.07;1.55;;;;;;;21.71;nan;100974.63;2032071;29;20052;-68
2022/08/02 04:52:20;;;;;;;9.48;1.85;;;;;;;21.70;nan;100972.22;2024735;29;20456;-68
2022/08/02 04:53:24;;;;;;;4.80;1.50;;;;;;;21.73;nan;100971.53;2032998;29;20058;-67
2022/08/02 04:54:29;;;;;;;5.20;1.52;;;;;;;21.72;nan;100976.22;2032423;29;20047;-67
2022/08/02 04:55:32;;;;;;;8.07;1.55;;;;;;;21.70;nan;100975.75;2030413;29;20056;-67
2022/08/02 04:56:40;;;;;;;5.20;1.70;;;;;;;21.74;nan;100970.41;2039988;29;20531;-67
2022/08/02 04:57:53;;;;;;;4.30;1.60;;;;;;;21.70;nan;100967.56;2032292;29;20036;-67
2022/08/02 04:59:02;;;;;;;4.57;1.40;;;;;;;21.68;nan;100974.50;2042511;29;20096;-67
2022/08/02 05:00:15;;;;;;;5.93;1.60;;;;;;;21.83;nan;100971.06;2044907;29;20051;-67
2022/08/02 05:01:17;;;;;;;5.00;1.70;;;;;;;21.93;nan;100981.53;2033590;29;20059;-67
2022/08/02 05:02:19;;;;;;;5.55;1.60;;;;;;;22.04;nan;100981.88;2016733;29;20049;-67
2022/08/02 05:03:22;;;;;;;6.57;1.88;;;;;;;22.06;nan;100989.72;2024863;29;20060;-67
2022/08/02 05:04:25;;;;;;;4.72;1.83;;;;;;;22.00;nan;100986.44;2028230;29;20696;-67
2022/08/02 05:05:27;;;;;;;5.70;1.60;;;;;;;22.05;nan;100985.41;2032009;29;20052;-66
2022/08/02 05:06:32;;;;;;;10.43;2.15;;;;;;;22.13;nan;100985.28;2039355;29;20476;-67
2022/08/02 05:07:34;;;;;;;7.57;1.83;;;;;;;22.19;nan;100983.09;2031777;29;20059;-67
2022/08/02 05:08:37;;;;;;;6.45;1.88;;;;;;;22.25;nan;100983.66;2032611;29;20191;-67
2022/08/02 05:09:43;;;;;;;7.07;1.65;;;;;;;22.29;nan;100984.56;2031942;29;20055;-67
2022/08/02 05:10:46;;;;;;;5.07;1.30;;;;;;;22.35;nan;100980.44;2032255;29;20055;-67
2022/08/02 05:11:50;;;;;;;8.13;2.42;;;;;;;22.42;nan;100978.69;2040019;29;20416;-67
2022/08/02 05:12:53;;;;;;;8.27;2.25;;;;;;;22.48;nan;100983.91;2040278;29;20047;-67
2022/08/02 05:13:54;;;;;;;21.45;3.42;;;;;;;22.40;nan;100988.41;2032275;29;20052;-67
2022/08/02 05:14:57;;;;;;;14.43;2.20;;;;;;;22.30;nan;100989.69;2032556;29;20056;-67
2022/08/02 05:16:02;;;;;;;19.35;3.33;;;;;;;22.29;nan;100987.28;2039795;29;20055;-66
2022/08/02 05:17:06;;;;;;;20.88;4.05;;;;;;;22.31;nan;100985.81;2039290;29;20066;-66